Time;durP1;ratioP1;P1;durP2;ratioP2;P2;SDS_P1;SDS_P2;PMS_P1;PMS_P2;Temp;Humidity;BMP_temperature;BMP_pressure;BME280_temperature;BME280_humidity;BME280_pressure;Samples;Min_cycle;Max_cycle;Signal;HPM_P1;HPM_P2
2020/12/06 00:01:47;;;;;;;547.87;381.97;;;;;;;;;;4450355;32;20217;-59
2020/12/06 00:04:19;;;;;;;560.67;382.63;;;;;;;;;;4450417;32;20414;-60
2020/12/06 00:06:45;;;;;;;532.73;372.97;;;;;;;;;;4452873;32;20228;-58
2020/12/06 00:09:10;;;;;;;533.33;376.27;;;;;;;;;;4452209;32;20344;-60
2020/12/06 00:11:36;;;;;;;527.20;367.70;;;;;;;;;;4450316;32;20225;-60
2020/12/06 00:14:01;;;;;;;531.73;375.03;;;;;;;;;;4451971;32;20708;-60
2020/12/06 00:16:27;;;;;;;536.27;372.03;;;;;;;;;;4451750;32;20689;-60
2020/12/06 00:18:53;;;;;;;530.80;369.97;;;;;;;;;;4455943;32;20228;-58
2020/12/06 00:21:19;;;;;;;593.83;397.17;;;;;;;;;;4448562;32;20242;-59
2020/12/06 00:23:46;;;;;;;564.73;385.60;;;;;;;;;;4452100;32;20251;-61
2020/12/06 00:26:19;;;;;;;567.23;396.63;;;;;;;;;;4451104;32;20342;-61
2020/12/06 00:28:44;;;;;;;553.60;385.97;;;;;;;;;;4454493;32;20232;-59
2020/12/06 00:31:11;;;;;;;549.03;377.73;;;;;;;;;;4450342;32;20410;-61
2020/12/06 00:33:36;;;;;;;544.33;374.83;;;;;;;;;;4450356;32;20233;-59
2020/12/06 00:36:01;;;;;;;558.73;382.60;;;;;;;;;;4450072;32;20388;-59
2020/12/06 00:38:27;;;;;;;557.73;383.83;;;;;;;;;;4453043;32;20273;-60
2020/12/06 00:40:52;;;;;;;575.03;402.87;;;;;;;;;;4451660;32;20288;-60
2020/12/06 00:43:18;;;;;;;575.93;403.40;;;;;;;;;;4450570;32;20235;-60
2020/12/06 00:45:43;;;;;;;573.63;398.60;;;;;;;;;;4451463;32;20260;-59
2020/12/06 00:48:09;;;;;;;557.33;397.53;;;;;;;;;;4450959;32;20686;-59
2020/12/06 00:50:34;;;;;;;540.17;373.57;;;;;;;;;;4449343;32;20287;-59
2020/12/06 00:52:59;;;;;;;527.63;365.43;;;;;;;;;;4448413;32;20465;-60
2020/12/06 00:55:25;;;;;;;518.40;358.80;;;;;;;;;;4449747;32;20378;-59
2020/12/06 00:57:50;;;;;;;523.47;364.03;;;;;;;;;;4449688;32;20363;-59
2020/12/06 01:00:16;;;;;;;536.63;374.47;;;;;;;;;;4448745;32;20366;-59
2020/12/06 01:02:42;;;;;;;512.30;354.23;;;;;;;;;;4449371;32;20742;-59
2020/12/06 01:05:07;;;;;;;495.20;336.57;;;;;;;;;;4450871;32;20327;-60
2020/12/06 01:07:38;;;;;;;494.90;335.10;;;;;;;;;;4449886;32;20300;-59
2020/12/06 01:10:06;;;;;;;481.07;321.53;;;;;;;;;;4451675;32;20244;-59
2020/12/06 01:12:31;;;;;;;463.03;306.90;;;;;;;;;;4450845;32;20273;-59
2020/12/06 01:14:57;;;;;;;460.37;305.50;;;;;;;;;;4450770;32;20319;-60
2020/12/06 01:17:22;;;;;;;447.10;288.33;;;;;;;;;;4450503;32;20269;-60
2020/12/06 01:19:48;;;;;;;444.97;288.40;;;;;;;;;;4450798;32;20355;-61
2020/12/06 01:22:13;;;;;;;450.93;284.27;;;;;;;;;;4449899;32;20291;-60
2020/12/06 01:24:38;;;;;;;457.23;289.00;;;;;;;;;;4451409;32;20280;-60
2020/12/06 01:27:04;;;;;;;430.93;274.20;;;;;;;;;;4456279;32;20656;-60
2020/12/06 01:29:29;;;;;;;421.73;271.53;;;;;;;;;;4453463;32;20266;-60
2020/12/06 01:31:55;;;;;;;410.67;264.57;;;;;;;;;;4449875;32;20291;-60
2020/12/06 01:34:20;;;;;;;419.67;266.73;;;;;;;;;;4461025;32;20307;-60
2020/12/06 01:36:50;;;;;;;424.53;271.83;;;;;;;;;;4450583;32;20248;-58
2020/12/06 01:39:15;;;;;;;437.80;291.23;;;;;;;;;;4460140;32;20299;-58
2020/12/06 01:41:40;;;;;;;449.60;293.73;;;;;;;;;;4449636;32;20311;-58
2020/12/06 01:44:06;;;;;;;451.27;299.30;;;;;;;;;;4450586;32;20274;-58
2020/12/06 01:46:34;;;;;;;463.33;303.37;;;;;;;;;;4451755;32;20386;-59
2020/12/06 01:49:00;;;;;;;484.83;327.93;;;;;;;;;;4447320;32;20236;-59
2020/12/06 01:51:25;;;;;;;488.23;321.33;;;;;;;;;;4453810;32;20383;-59
2020/12/06 01:53:51;;;;;;;477.33;318.20;;;;;;;;;;4448169;32;20299;-59
2020/12/06 01:56:17;;;;;;;452.43;294.87;;;;;;;;;;4436985;32;21456;-59
2020/12/06 01:58:43;;;;;;;446.93;285.13;;;;;;;;;;4456824;32;20274;-59
2020/12/06 02:01:09;;;;;;;467.47;304.93;;;;;;;;;;4449000;32;20737;-60
2020/12/06 02:03:36;;;;;;;473.67;318.37;;;;;;;;;;4456832;32;20239;-58
2020/12/06 02:06:03;;;;;;;460.63;293.70;;;;;;;;;;4457663;32;20295;-58
2020/12/06 02:08:28;;;;;;;478.63;298.77;;;;;;;;;;4456261;32;20344;-58
2020/12/06 02:10:54;;;;;;;482.47;320.60;;;;;;;;;;4455760;32;20778;-58
2020/12/06 02:13:21;;;;;;;483.30;314.70;;;;;;;;;;4449168;32;20628;-58
2020/12/06 02:15:46;;;;;;;491.33;320.27;;;;;;;;;;4459168;32;20775;-59
2020/12/06 02:18:12;;;;;;;496.23;326.37;;;;;;;;;;4449133;32;20429;-58
2020/12/06 02:20:37;;;;;;;463.87;300.60;;;;;;;;;;4456867;32;20248;-59
2020/12/06 02:23:04;;;;;;;466.90;297.87;;;;;;;;;;4453314;32;20248;-59
2020/12/06 02:25:34;;;;;;;446.23;274.57;;;;;;;;;;4459690;32;20275;-59
2020/12/06 02:28:00;;;;;;;435.50;268.10;;;;;;;;;;4454298;32;20566;-58
2020/12/06 02:30:25;;;;;;;433.00;272.03;;;;;;;;;;4459769;32;20337;-57
2020/12/06 02:32:51;;;;;;;434.67;268.03;;;;;;;;;;4453297;32;20223;-56
2020/12/06 02:35:16;;;;;;;418.53;261.23;;;;;;;;;;4446185;32;20255;-56
2020/12/06 02:37:41;;;;;;;438.37;273.57;;;;;;;;;;4448895;32;20375;-56
2020/12/06 02:40:07;;;;;;;440.30;276.10;;;;;;;;;;4444742;32;20349;-56
2020/12/06 02:42:32;;;;;;;443.70;279.33;;;;;;;;;;4450988;32;20650;-57
2020/12/06 02:44:58;;;;;;;444.03;278.13;;;;;;;;;;4447425;32;20240;-57
2020/12/06 02:47:23;;;;;;;422.50;260.83;;;;;;;;;;4450167;32;20710;-57
2020/12/06 02:49:48;;;;;;;424.43;269.80;;;;;;;;;;4445312;32;20242;-57
2020/12/06 02:52:14;;;;;;;431.70;269.67;;;;;;;;;;4451522;32;20220;-57
2020/12/06 02:54:39;;;;;;;431.37;266.43;;;;;;;;;;4445677;32;20228;-57
2020/12/06 02:57:05;;;;;;;414.43;261.17;;;;;;;;;;4450877;32;20443;-57
2020/12/06 02:59:31;;;;;;;418.10;260.93;;;;;;;;;;4459508;32;20362;-57
2020/12/06 03:01:57;;;;;;;404.83;256.90;;;;;;;;;;4455532;32;20295;-57
2020/12/06 03:04:22;;;;;;;411.97;258.23;;;;;;;;;;4444884;32;20768;-57
2020/12/06 03:06:47;;;;;;;433.07;264.97;;;;;;;;;;4449814;32;20670;-57
2020/12/06 03:09:13;;;;;;;401.13;256.17;;;;;;;;;;4453330;32;20266;-57
2020/12/06 03:11:39;;;;;;;393.90;253.73;;;;;;;;;;4452624;32;20294;-57
2020/12/06 03:14:05;;;;;;;403.47;258.37;;;;;;;;;;4451351;32;20241;-56
2020/12/06 03:16:30;;;;;;;400.73;257.57;;;;;;;;;;4458420;32;20766;-60
2020/12/06 03:18:56;;;;;;;390.07;249.87;;;;;;;;;;4445540;32;20247;-59
2020/12/06 03:21:21;;;;;;;407.10;260.77;;;;;;;;;;4448982;32;20390;-60
2020/12/06 03:23:46;;;;;;;415.03;262.20;;;;;;;;;;4444389;32;20368;-60
2020/12/06 03:26:12;;;;;;;427.70;263.70;;;;;;;;;;4452316;32;20408;-59
2020/12/06 03:28:37;;;;;;;411.20;258.03;;;;;;;;;;4452189;32;20204;-58
2020/12/06 03:31:03;;;;;;;426.37;263.10;;;;;;;;;;4445697;32;20667;-57
2020/12/06 03:33:28;;;;;;;428.30;265.63;;;;;;;;;;4449756;32;20616;-58
2020/12/06 03:35:53;;;;;;;407.37;261.07;;;;;;;;;;4459501;32;20326;-58
2020/12/06 03:38:19;;;;;;;402.47;258.47;;;;;;;;;;4449716;32;20246;-58
2020/12/06 03:40:44;;;;;;;423.57;271.00;;;;;;;;;;4443723;32;20216;-58
2020/12/06 03:43:10;;;;;;;429.50;269.97;;;;;;;;;;4438950;32;20441;-58
2020/12/06 03:45:35;;;;;;;437.57;272.23;;;;;;;;;;4454760;32;20362;-57
2020/12/06 03:48:01;;;;;;;425.47;263.57;;;;;;;;;;4448406;32;20299;-59
2020/12/06 03:50:26;;;;;;;407.27;257.97;;;;;;;;;;4449023;32;20232;-58
2020/12/06 03:52:51;;;;;;;403.07;256.80;;;;;;;;;;4444204;32;20295;-57
2020/12/06 03:55:17;;;;;;;413.37;256.60;;;;;;;;;;4459280;32;20335;-59
2020/12/06 03:57:42;;;;;;;417.97;257.37;;;;;;;;;;4445754;32;20370;-58
2020/12/06 04:00:08;;;;;;;407.40;254.57;;;;;;;;;;4450799;32;20280;-58
2020/12/06 04:02:33;;;;;;;407.97;255.03;;;;;;;;;;4447279;32;20305;-57
2020/12/06 04:04:59;;;;;;;408.37;255.20;;;;;;;;;;4445485;32;20348;-57
2020/12/06 04:07:24;;;;;;;396.03;251.17;;;;;;;;;;4449511;32;20242;-57
2020/12/06 04:09:50;;;;;;;398.70;251.50;;;;;;;;;;4459347;32;20220;-57
2020/12/06 04:12:15;;;;;;;386.27;243.90;;;;;;;;;;4457912;32;20649;-59
2020/12/06 04:14:41;;;;;;;412.23;261.63;;;;;;;;;;4445320;32;20347;-58
2020/12/06 04:17:06;;;;;;;392.97;244.90;;;;;;;;;;4453556;32;20616;-57
2020/12/06 04:19:32;;;;;;;403.43;247.17;;;;;;;;;;4458257;32;20363;-57
2020/12/06 04:21:57;;;;;;;401.17;246.30;;;;;;;;;;4458443;32;20293;-58
2020/12/06 04:24:23;;;;;;;403.03;244.90;;;;;;;;;;4462736;32;20616;-58
2020/12/06 04:26:48;;;;;;;398.77;247.90;;;;;;;;;;4458034;32;20263;-57
2020/12/06 04:29:14;;;;;;;405.73;245.77;;;;;;;;;;4462835;32;20702;-58
2020/12/06 04:31:39;;;;;;;386.50;246.50;;;;;;;;;;4456442;32;20357;-58
2020/12/06 04:34:05;;;;;;;382.73;245.73;;;;;;;;;;4461170;32;20285;-57
2020/12/06 04:36:30;;;;;;;404.20;248.57;;;;;;;;;;4454050;32;20370;-58
2020/12/06 04:38:56;;;;;;;402.80;252.00;;;;;;;;;;4459955;32;20323;-58
2020/12/06 04:41:28;;;;;;;387.53;240.50;;;;;;;;;;4461395;32;20236;-57
2020/12/06 04:43:53;;;;;;;399.33;242.90;;;;;;;;;;4454445;32;20744;-57
2020/12/06 04:46:19;;;;;;;400.00;242.77;;;;;;;;;;4459910;32;20212;-57
2020/12/06 04:49:06;;;;;;;390.90;237.57;;;;;;;;;;4459452;32;20212;-57
2020/12/06 04:51:48;;;;;;;399.53;241.77;;;;;;;;;;4454975;32;20339;-59
2020/12/06 04:54:19;;;;;;;391.33;236.07;;;;;;;;;;4452027;32;20224;-58
2020/12/06 04:56:46;;;;;;;407.43;249.97;;;;;;;;;;4447587;32;20243;-58
2020/12/06 04:59:12;;;;;;;400.17;248.70;;;;;;;;;;4448926;32;20422;-58
2020/12/06 05:01:39;;;;;;;394.67;254.07;;;;;;;;;;4447443;32;20727;-58
2020/12/06 05:04:15;;;;;;;393.27;248.10;;;;;;;;;;4458712;32;20385;-58
2020/12/06 05:06:44;;;;;;;398.13;247.83;;;;;;;;;;4444523;32;20286;-58
2020/12/06 05:09:14;;;;;;;402.73;254.47;;;;;;;;;;4461240;32;20236;-58
2020/12/06 05:11:41;;;;;;;412.03;255.57;;;;;;;;;;4456796;32;20220;-57
2020/12/06 05:14:07;;;;;;;402.80;245.73;;;;;;;;;;4461950;32;20706;-58
2020/12/06 05:16:37;;;;;;;389.83;242.63;;;;;;;;;;4455627;32;20375;-59
2020/12/06 05:19:04;;;;;;;398.37;247.30;;;;;;;;;;4455212;32;20283;-58
2020/12/06 05:21:33;;;;;;;421.27;266.83;;;;;;;;;;4454494;32;20446;-58
2020/12/06 05:23:59;;;;;;;387.97;246.77;;;;;;;;;;4449265;32;20689;-58
2020/12/06 05:26:24;;;;;;;386.60;249.33;;;;;;;;;;4458720;32;20246;-56
2020/12/06 05:28:49;;;;;;;404.40;252.00;;;;;;;;;;4457307;32;20335;-56
2020/12/06 05:31:15;;;;;;;400.60;248.70;;;;;;;;;;4449235;32;20865;-57
2020/12/06 05:33:40;;;;;;;409.70;253.50;;;;;;;;;;4452835;32;20362;-58
2020/12/06 05:36:06;;;;;;;387.90;247.90;;;;;;;;;;4459941;32;20377;-56
2020/12/06 05:38:32;;;;;;;413.60;258.13;;;;;;;;;;4452344;32;20251;-56
2020/12/06 05:40:58;;;;;;;401.30;247.23;;;;;;;;;;4454745;32;20697;-56
2020/12/06 05:43:28;;;;;;;411.97;257.10;;;;;;;;;;4449185;32;20232;-56
2020/12/06 05:46:07;;;;;;;420.23;263.93;;;;;;;;;;4462715;32;20283;-56
2020/12/06 05:48:33;;;;;;;398.83;254.67;;;;;;;;;;4448963;32;20315;-56
2020/12/06 05:51:00;;;;;;;410.17;259.57;;;;;;;;;;4447759;32;20239;-56
2020/12/06 05:53:27;;;;;;;422.47;265.77;;;;;;;;;;4457260;32;20219;-57
2020/12/06 05:55:59;;;;;;;403.03;254.30;;;;;;;;;;4462334;32;20288;-56
2020/12/06 05:58:26;;;;;;;395.80;250.43;;;;;;;;;;4451686;32;20221;-57
2020/12/06 06:00:53;;;;;;;397.00;252.57;;;;;;;;;;4461662;32;20335;-57
2020/12/06 06:03:27;;;;;;;394.97;251.40;;;;;;;;;;4448988;32;20216;-57
2020/12/06 06:05:55;;;;;;;404.83;254.83;;;;;;;;;;4447925;32;20268;-57
2020/12/06 06:08:25;;;;;;;395.37;255.30;;;;;;;;;;4450631;32;20292;-56
2020/12/06 06:11:18;;;;;;;416.43;267.30;;;;;;;;;;4445564;32;20266;-57
2020/12/06 06:13:52;;;;;;;405.30;263.87;;;;;;;;;;4457734;32;20224;-57
2020/12/06 06:16:22;;;;;;;400.63;261.23;;;;;;;;;;4461595;32;20314;-57
2020/12/06 06:18:50;;;;;;;401.33;257.33;;;;;;;;;;4448590;32;20378;-58
2020/12/06 06:21:23;;;;;;;407.57;258.07;;;;;;;;;;4446140;32;20591;-57
2020/12/06 06:23:51;;;;;;;399.33;256.30;;;;;;;;;;4446897;32;20290;-57
2020/12/06 06:26:18;;;;;;;406.53;258.43;;;;;;;;;;4446094;32;20221;-57
2020/12/06 06:28:45;;;;;;;395.70;246.10;;;;;;;;;;4459128;32;20525;-57
2020/12/06 06:31:14;;;;;;;385.23;256.17;;;;;;;;;;4458117;32;20306;-57
2020/12/06 06:33:39;;;;;;;403.13;255.00;;;;;;;;;;4447735;32;20296;-57
2020/12/06 06:36:09;;;;;;;395.63;256.43;;;;;;;;;;4445616;32;20606;-57
2020/12/06 06:38:45;;;;;;;417.53;266.47;;;;;;;;;;4457740;32;20212;-58
2020/12/06 06:41:11;;;;;;;409.17;267.70;;;;;;;;;;4459558;32;20639;-57
2020/12/06 06:43:38;;;;;;;412.30;274.30;;;;;;;;;;4453269;32;20244;-57
2020/12/06 06:46:15;;;;;;;407.40;268.70;;;;;;;;;;4461645;32;20232;-57
2020/12/06 06:48:50;;;;;;;396.83;265.30;;;;;;;;;;4459575;32;20345;-56
2020/12/06 06:51:21;;;;;;;328.23;218.37;;;;;;;;;;4446354;32;20358;-57
2020/12/06 06:53:46;;;;;;;323.27;217.20;;;;;;;;;;4447206;32;20360;-56
2020/12/06 06:56:16;;;;;;;359.93;239.60;;;;;;;;;;4456159;32;20362;-57
2020/12/06 06:58:41;;;;;;;370.10;236.00;;;;;;;;;;4448139;32;20404;-56
2020/12/06 07:01:23;;;;;;;349.17;226.47;;;;;;;;;;4446300;32;20641;-56
2020/12/06 07:03:53;;;;;;;364.20;241.90;;;;;;;;;;4458117;32;20267;-56
2020/12/06 07:06:45;;;;;;;386.47;256.17;;;;;;;;;;4459835;32;20223;-56
2020/12/06 07:09:11;;;;;;;409.93;271.70;;;;;;;;;;4460949;32;20307;-55
2020/12/06 07:11:39;;;;;;;401.77;260.93;;;;;;;;;;4457214;32;20240;-55
2020/12/06 07:14:04;;;;;;;397.87;267.77;;;;;;;;;;4459474;32;20338;-55
2020/12/06 07:16:30;;;;;;;393.43;265.77;;;;;;;;;;4457563;32;20401;-55
2020/12/06 07:18:55;;;;;;;401.67;270.30;;;;;;;;;;4448171;32;20366;-54
2020/12/06 07:21:21;;;;;;;419.67;275.77;;;;;;;;;;4449432;32;20455;-55
2020/12/06 07:23:46;;;;;;;431.37;291.13;;;;;;;;;;4453393;32;20732;-55
2020/12/06 07:26:12;;;;;;;463.97;315.67;;;;;;;;;;4446346;32;20338;-56
2020/12/06 07:28:37;;;;;;;460.00;314.33;;;;;;;;;;4444658;32;20254;-55
2020/12/06 07:31:03;;;;;;;473.20;332.63;;;;;;;;;;4443321;32;20244;-55
2020/12/06 07:33:28;;;;;;;476.53;336.80;;;;;;;;;;4442871;32;20750;-56
2020/12/06 07:35:53;;;;;;;478.90;331.40;;;;;;;;;;4442987;32;20359;-55
2020/12/06 07:38:19;;;;;;;468.03;325.97;;;;;;;;;;4442246;32;20296;-56
2020/12/06 07:40:44;;;;;;;455.80;321.23;;;;;;;;;;4444143;32;20313;-57
2020/12/06 07:43:14;;;;;;;485.80;328.10;;;;;;;;;;4441465;32;20308;-57
2020/12/06 07:45:40;;;;;;;471.90;317.07;;;;;;;;;;4443861;32;20318;-56
2020/12/06 07:48:05;;;;;;;446.87;296.67;;;;;;;;;;4441869;32;20363;-56
2020/12/06 07:50:31;;;;;;;435.87;288.80;;;;;;;;;;4444468;32;20819;-57
2020/12/06 07:53:02;;;;;;;426.17;290.97;;;;;;;;;;4452231;32;20680;-57
2020/12/06 07:55:28;;;;;;;427.70;286.27;;;;;;;;;;4444324;32;20495;-61
2020/12/06 07:57:57;;;;;;;438.30;294.00;;;;;;;;;;4457167;32;20232;-57
2020/12/06 08:00:29;;;;;;;447.13;309.77;;;;;;;;;;4456579;32;20319;-56
2020/12/06 08:02:57;;;;;;;445.03;303.63;;;;;;;;;;4454242;32;20274;-56
2020/12/06 08:05:26;;;;;;;398.80;278.73;;;;;;;;;;4459590;32;20408;-57
2020/12/06 08:07:57;;;;;;;431.63;292.33;;;;;;;;;;4454497;32;20240;-58
2020/12/06 08:10:25;;;;;;;415.53;283.70;;;;;;;;;;4454328;32;20315;-58
2020/12/06 08:12:53;;;;;;;469.13;335.93;;;;;;;;;;4454275;32;20639;-59
2020/12/06 08:15:23;;;;;;;438.87;304.07;;;;;;;;;;4452382;32;20714;-56
2020/12/06 08:17:51;;;;;;;418.70;287.53;;;;;;;;;;4449186;32;20249;-56
2020/12/06 08:20:26;;;;;;;384.37;260.47;;;;;;;;;;4449264;32;20783;-56
2020/12/06 08:22:52;;;;;;;373.20;258.80;;;;;;;;;;4450585;32;20287;-57
2020/12/06 08:25:27;;;;;;;359.87;246.43;;;;;;;;;;4461814;32;20273;-58
2020/12/06 08:27:54;;;;;;;349.47;231.00;;;;;;;;;;4460844;32;20370;-57
2020/12/06 08:30:22;;;;;;;239.30;165.80;;;;;;;;;;4451132;32;20251;-57
2020/12/06 08:33:00;;;;;;;299.20;192.53;;;;;;;;;;4458176;32;20224;-57
2020/12/06 08:35:42;;;;;;;278.00;185.80;;;;;;;;;;4463155;32;20583;-55
2020/12/06 08:38:20;;;;;;;254.33;174.07;;;;;;;;;;4463421;32;20243;-56
2020/12/06 08:41:07;;;;;;;277.00;186.27;;;;;;;;;;4461556;32;20236;-58
2020/12/06 08:43:49;;;;;;;274.37;188.90;;;;;;;;;;4457376;32;20354;-59
2020/12/06 08:46:18;;;;;;;296.83;205.80;;;;;;;;;;4460142;32;20700;-59
2020/12/06 08:48:44;;;;;;;307.57;209.90;;;;;;;;;;4456829;32;20291;-57
2020/12/06 08:51:29;;;;;;;316.40;221.53;;;;;;;;;;4462700;32;20325;-59
2020/12/06 08:53:55;;;;;;;330.60;229.73;;;;;;;;;;4460264;32;20254;-57
2020/12/06 08:56:23;;;;;;;331.30;231.30;;;;;;;;;;4462232;32;20279;-57
2020/12/06 08:58:49;;;;;;;328.13;235.33;;;;;;;;;;4457766;32;20353;-58
2020/12/06 09:01:14;;;;;;;355.50;246.07;;;;;;;;;;4462474;32;20263;-58
2020/12/06 09:03:39;;;;;;;348.17;241.33;;;;;;;;;;4463564;32;20366;-57
2020/12/06 09:06:05;;;;;;;350.77;237.80;;;;;;;;;;4464390;32;20363;-57
2020/12/06 09:08:30;;;;;;;350.77;237.43;;;;;;;;;;4459048;32;20249;-58
2020/12/06 09:10:56;;;;;;;216.87;147.27;;;;;;;;;;4455811;32;20324;-58
2020/12/06 09:13:21;;;;;;;419.70;294.23;;;;;;;;;;4463838;32;20254;-58
2020/12/06 09:15:46;;;;;;;393.63;280.70;;;;;;;;;;4463801;32;20247;-57
2020/12/06 09:18:12;;;;;;;393.00;275.77;;;;;;;;;;4458610;32;20291;-57
2020/12/06 09:20:37;;;;;;;379.30;265.37;;;;;;;;;;4454082;32;20262;-58
2020/12/06 09:23:03;;;;;;;380.90;263.40;;;;;;;;;;4463773;32;20295;-57
2020/12/06 09:25:28;;;;;;;369.30;254.60;;;;;;;;;;4464227;32;20676;-56
2020/12/06 09:27:55;;;;;;;367.00;254.17;;;;;;;;;;4463690;32;20276;-56
2020/12/06 09:30:21;;;;;;;373.23;257.70;;;;;;;;;;4457969;32;20700;-57
2020/12/06 09:32:46;;;;;;;377.27;263.93;;;;;;;;;;4456195;32;20264;-57
2020/12/06 09:35:12;;;;;;;384.33;267.83;;;;;;;;;;4459612;32;20543;-59
2020/12/06 09:37:37;;;;;;;380.40;273.53;;;;;;;;;;4458743;32;20235;-59
2020/12/06 09:40:03;;;;;;;389.40;275.60;;;;;;;;;;4462739;32;20279;-58
2020/12/06 09:42:28;;;;;;;402.87;286.60;;;;;;;;;;4463383;32;20232;-58
2020/12/06 09:44:53;;;;;;;424.10;298.57;;;;;;;;;;4457039;32;20262;-58
2020/12/06 09:47:19;;;;;;;409.60;287.57;;;;;;;;;;4448282;32;20288;-58
2020/12/06 09:49:44;;;;;;;405.43;279.80;;;;;;;;;;4461872;32;20250;-59
2020/12/06 09:52:10;;;;;;;400.87;286.73;;;;;;;;;;4461417;32;20291;-58
2020/12/06 09:54:35;;;;;;;405.20;288.43;;;;;;;;;;4460146;32;20285;-59
2020/12/06 09:57:02;;;;;;;401.90;282.10;;;;;;;;;;4460182;32;20260;-58
2020/12/06 09:59:28;;;;;;;390.03;272.20;;;;;;;;;;4459526;32;20656;-59
2020/12/06 10:01:53;;;;;;;443.23;313.43;;;;;;;;;;4462057;32;20260;-59
2020/12/06 10:04:19;;;;;;;415.27;293.53;;;;;;;;;;4460758;32;20433;-59
2020/12/06 10:06:44;;;;;;;350.67;246.33;;;;;;;;;;4460078;32;20358;-59
2020/12/06 10:09:09;;;;;;;586.03;452.90;;;;;;;;;;4456456;32;20638;-59
2020/12/06 10:11:35;;;;;;;397.57;274.07;;;;;;;;;;4462727;32;20224;-59
2020/12/06 10:14:00;;;;;;;424.37;285.97;;;;;;;;;;4459711;32;20270;-59
2020/12/06 10:16:26;;;;;;;425.57;295.37;;;;;;;;;;4456942;32;20219;-57
2020/12/06 10:18:54;;;;;;;453.47;315.03;;;;;;;;;;4450839;32;20281;-59
2020/12/06 10:21:20;;;;;;;427.67;289.67;;;;;;;;;;4460309;32;20248;-58
2020/12/06 10:23:45;;;;;;;364.70;253.07;;;;;;;;;;4460117;32;20431;-58
2020/12/06 10:26:12;;;;;;;337.50;238.27;;;;;;;;;;4456254;32;20358;-60
2020/12/06 10:28:37;;;;;;;325.47;224.00;;;;;;;;;;4451136;32;20585;-59
2020/12/06 10:31:03;;;;;;;280.30;197.27;;;;;;;;;;4461561;32;20283;-58
2020/12/06 10:33:28;;;;;;;285.17;183.83;;;;;;;;;;4462176;32;20273;-59
2020/12/06 10:35:54;;;;;;;283.60;187.50;;;;;;;;;;4461860;32;20291;-59
2020/12/06 10:38:19;;;;;;;282.47;194.27;;;;;;;;;;4450670;32;20649;-59
2020/12/06 10:40:44;;;;;;;285.03;197.13;;;;;;;;;;4462540;32;20250;-59
2020/12/06 10:43:10;;;;;;;284.83;193.13;;;;;;;;;;4461961;32;20311;-58
2020/12/06 10:45:35;;;;;;;261.50;176.93;;;;;;;;;;4462420;32;20311;-59
2020/12/06 10:48:02;;;;;;;241.83;164.17;;;;;;;;;;4449142;32;20232;-58
2020/12/06 10:50:29;;;;;;;256.53;178.27;;;;;;;;;;4461872;32;20341;-59
2020/12/06 10:52:54;;;;;;;279.07;189.43;;;;;;;;;;4453573;32;20247;-60
2020/12/06 10:55:24;;;;;;;279.80;186.67;;;;;;;;;;4453838;32;20240;-57
2020/12/06 10:57:53;;;;;;;269.57;187.90;;;;;;;;;;4437520;32;20541;-56
2020/12/06 11:00:19;;;;;;;276.13;191.70;;;;;;;;;;4457314;32;20276;-59
2020/12/06 11:02:45;;;;;;;299.97;205.37;;;;;;;;;;4457473;32;20259;-59
2020/12/06 11:05:11;;;;;;;444.73;273.03;;;;;;;;;;4462411;32;20327;-58
2020/12/06 11:07:36;;;;;;;314.47;211.93;;;;;;;;;;4457665;32;20212;-59
2020/12/06 11:10:02;;;;;;;316.30;212.00;;;;;;;;;;4460753;32;20353;-60
2020/12/06 11:12:27;;;;;;;304.80;207.33;;;;;;;;;;4458833;32;20304;-59
2020/12/06 11:14:53;;;;;;;291.53;201.70;;;;;;;;;;4462100;32;20631;-59
2020/12/06 11:17:19;;;;;;;298.47;204.87;;;;;;;;;;4456892;32;20243;-56
2020/12/06 11:19:44;;;;;;;302.30;212.13;;;;;;;;;;4450648;32;20316;-63
2020/12/06 11:22:09;;;;;;;313.23;215.50;;;;;;;;;;4460439;32;20223;-57
2020/12/06 11:24:36;;;;;;;322.33;225.53;;;;;;;;;;4450006;32;20284;-57
2020/12/06 11:27:01;;;;;;;352.03;243.83;;;;;;;;;;4454526;32;20233;-58
2020/12/06 11:29:27;;;;;;;337.77;236.97;;;;;;;;;;4456126;32;20651;-59
2020/12/06 11:31:52;;;;;;;353.43;243.50;;;;;;;;;;4438397;32;20279;-58
2020/12/06 11:34:18;;;;;;;357.30;245.03;;;;;;;;;;4462882;32;20435;-60
2020/12/06 11:36:48;;;;;;;350.60;242.13;;;;;;;;;;4461662;32;20221;-58
2020/12/06 11:39:13;;;;;;;298.93;217.20;;;;;;;;;;4458370;32;20319;-62
2020/12/06 11:41:38;;;;;;;352.80;247.17;;;;;;;;;;4462975;32;20243;-60
2020/12/06 11:44:04;;;;;;;296.37;194.77;;;;;;;;;;4452082;32;20662;-63
2020/12/06 11:46:29;;;;;;;277.43;180.10;;;;;;;;;;4460480;32;20289;-66
2020/12/06 11:48:55;;;;;;;264.97;179.67;;;;;;;;;;4452044;32;20319;-65
2020/12/06 11:51:20;;;;;;;338.37;209.27;;;;;;;;;;4452801;32;20244;-65
2020/12/06 11:53:46;;;;;;;252.30;159.50;;;;;;;;;;4448097;32;20279;-62
2020/12/06 11:56:13;;;;;;;213.00;137.43;;;;;;;;;;4448533;32;20819;-70
2020/12/06 11:58:40;;;;;;;198.23;129.60;;;;;;;;;;4449920;32;20259;-68
2020/12/06 12:01:05;;;;;;;230.83;139.30;;;;;;;;;;4456411;32;20453;-66
2020/12/06 12:03:31;;;;;;;319.30;174.10;;;;;;;;;;4463376;32;20472;-66
2020/12/06 12:05:57;;;;;;;183.47;118.90;;;;;;;;;;4458733;32;20717;-69
2020/12/06 12:08:22;;;;;;;160.07;108.00;;;;;;;;;;4449616;32;20359;-62
2020/12/06 12:10:48;;;;;;;283.57;169.93;;;;;;;;;;4459816;32;20704;-63
2020/12/06 12:13:14;;;;;;;193.90;130.47;;;;;;;;;;4449287;32;20286;-64
2020/12/06 12:15:39;;;;;;;194.03;124.43;;;;;;;;;;4463016;32;20304;-63
2020/12/06 12:18:04;;;;;;;176.20;114.23;;;;;;;;;;4459383;32;20725;-64
2020/12/06 12:20:30;;;;;;;167.00;113.37;;;;;;;;;;4446021;32;20260;-66
2020/12/06 12:22:55;;;;;;;171.97;114.10;;;;;;;;;;4460572;32;20295;-66
2020/12/06 12:25:21;;;;;;;181.33;125.67;;;;;;;;;;4463268;32;20285;-66
2020/12/06 12:27:46;;;;;;;171.57;118.07;;;;;;;;;;4456846;32;20687;-66
2020/12/06 12:30:12;;;;;;;177.43;116.73;;;;;;;;;;4449710;32;20319;-66
2020/12/06 12:32:37;;;;;;;177.93;122.87;;;;;;;;;;4451294;32;20645;-64
2020/12/06 12:35:03;;;;;;;251.07;150.93;;;;;;;;;;4456021;32;20338;-63
2020/12/06 12:37:28;;;;;;;256.17;153.70;;;;;;;;;;4461587;32;20381;-69
2020/12/06 12:39:54;;;;;;;202.93;138.57;;;;;;;;;;4462961;32;20256;-67
2020/12/06 12:42:19;;;;;;;221.43;143.57;;;;;;;;;;4453038;32;20566;-71
2020/12/06 12:44:45;;;;;;;222.87;153.87;;;;;;;;;;4449231;32;20303;-71
2020/12/06 12:47:10;;;;;;;194.70;135.20;;;;;;;;;;4456140;32;20208;-70
2020/12/06 12:49:36;;;;;;;198.47;134.00;;;;;;;;;;4448241;32;20266;-68
2020/12/06 12:52:02;;;;;;;164.43;114.37;;;;;;;;;;4461067;32;20689;-66
2020/12/06 12:54:28;;;;;;;149.40;105.07;;;;;;;;;;4449326;32;20729;-69
2020/12/06 12:56:53;;;;;;;131.07;91.90;;;;;;;;;;4449689;32;20262;-69
2020/12/06 12:59:19;;;;;;;128.17;89.20;;;;;;;;;;4464193;32;20771;-66
2020/12/06 13:01:45;;;;;;;138.87;94.03;;;;;;;;;;4463541;32;20254;-66
2020/12/06 13:04:11;;;;;;;138.43;93.23;;;;;;;;;;4464689;32;20228;-67
2020/12/06 13:06:36;;;;;;;323.80;187.27;;;;;;;;;;4463748;32;20274;-67
2020/12/06 13:09:02;;;;;;;144.63;95.33;;;;;;;;;;4462688;32;20402;-66
2020/12/06 13:11:28;;;;;;;153.13;91.77;;;;;;;;;;4461819;32;20256;-66
2020/12/06 13:13:59;;;;;;;126.60;83.27;;;;;;;;;;4448563;32;20662;-67
2020/12/06 13:16:26;;;;;;;189.63;121.30;;;;;;;;;;4453706;32;20270;-69
2020/12/06 13:18:51;;;;;;;138.60;90.60;;;;;;;;;;4451504;32;20277;-69
2020/12/06 13:21:17;;;;;;;132.57;88.70;;;;;;;;;;4444294;32;20252;-70
2020/12/06 13:23:43;;;;;;;126.90;89.37;;;;;;;;;;4447162;32;20285;-66
2020/12/06 13:26:08;;;;;;;154.43;104.40;;;;;;;;;;4460491;32;20262;-71
2020/12/06 13:28:34;;;;;;;150.77;95.97;;;;;;;;;;4462373;32;20581;-72
2020/12/06 13:30:59;;;;;;;165.20;112.17;;;;;;;;;;4456722;32;20386;-71
2020/12/06 13:33:25;;;;;;;194.07;125.83;;;;;;;;;;4448130;32;20706;-70
2020/12/06 13:35:50;;;;;;;162.70;111.73;;;;;;;;;;4458922;32;20321;-71
2020/12/06 13:38:16;;;;;;;157.60;108.47;;;;;;;;;;4463759;32;20232;-65
2020/12/06 13:40:41;;;;;;;150.73;109.13;;;;;;;;;;4452159;32;20633;-73
2020/12/06 13:43:07;;;;;;;171.10;115.83;;;;;;;;;;4451278;32;20232;-73
2020/12/06 13:45:32;;;;;;;334.07;214.60;;;;;;;;;;4458906;32;20303;-74
2020/12/06 13:47:57;;;;;;;189.07;126.50;;;;;;;;;;4462529;32;20241;-74
2020/12/06 13:50:23;;;;;;;179.17;125.27;;;;;;;;;;4461082;32;20310;-70
2020/12/06 13:52:48;;;;;;;186.83;123.03;;;;;;;;;;4456348;32;20216;-68